Akra — ZGFG4 — position and weather

sailwx.info

Track history (hours):
 
Tides and Currents Weather Stations Pressure Air Temp Water Temp Dewpoint Dewpoint Depression Visibility Wind Speed Wind Dir Waves Ship Positions

Akra

Last reported at 2018-Jun-20 05:23 UTC. Time now 2018-Jul-20 08:24 UTC.
Position S 34°41' E 018°28'.
Warning: this ship's position is 30 days out of date.

Length 200 m; draft 12.1 m.

Type: Cargo ship. MMSI: 319093100.

Date/timePositionNaut miles runAvg speedWind from/ knotsBaromVisibWave heightAir tempDewpointWater temp
2018-Jun-20 05:23S 34°41' E 018°28'410.9
2018-Jun-20 05:00S 34°39' E 018°23'610.6
2018-Jun-20 04:24S 34°38' E 018°16'7 9.8
2018-Jun-20 03:41S 34°32' E 018°10'2 9.8
2018-Jun-20 03:30S 34°31' E 018°09'5 9.9
2018-Jun-20 03:00S 34°28' E 018°04'5 9.9
2018-Jun-20 02:29S 34°24' E 017°60'510.1
2018-Jun-20 02:00S 34°20' E 017°56'510.0
2018-Jun-20 01:30S 34°16' E 017°53'5 9.8
2018-Jun-20 00:59S 34°12' E 017°49'5 9.8
2018-Jun-20 00:30S 34°08' E 017°46'510.1
2018-Jun-20 00:00S 34°04' E 017°43'6 9.8
2018-Jun-19 23:24S 33°59' E 017°39'7 9.8
2018-Jun-19 22:38S 33°52' E 017°34'  
Track history (hours):
 
Tides and Currents Weather Stations Pressure Air Temp Water Temp Dewpoint Dewpoint Depression Visibility Wind Speed Wind Dir Waves Ship Positions

Akra

Last reported at 2018-Jun-20 05:23 UTC. Time now 2018-Jul-20 08:24 UTC.
Position S 34°41' E 018°28'.
Warning: this ship's position is 30 days out of date.

Length 200 m; draft 12.1 m.

Type: Cargo ship. MMSI: 319093100.

Date/timePositionNaut miles runAvg speedWind from/ knotsBaromVisibWave heightAir tempDewpointWater temp
2018-Jun-20 05:23S 34°41' E 018°28'410.9
2018-Jun-20 05:00S 34°39' E 018°23'610.6
2018-Jun-20 04:24S 34°38' E 018°16'7 9.8
2018-Jun-20 03:41S 34°32' E 018°10'2 9.8
2018-Jun-20 03:30S 34°31' E 018°09'5 9.9
2018-Jun-20 03:00S 34°28' E 018°04'5 9.9
2018-Jun-20 02:29S 34°24' E 017°60'510.1
2018-Jun-20 02:00S 34°20' E 017°56'510.0
2018-Jun-20 01:30S 34°16' E 017°53'5 9.8
2018-Jun-20 00:59S 34°12' E 017°49'5 9.8
2018-Jun-20 00:30S 34°08' E 017°46'510.1
2018-Jun-20 00:00S 34°04' E 017°43'6 9.8
2018-Jun-19 23:24S 33°59' E 017°39'7 9.8
2018-Jun-19 22:38S 33°52' E 017°34'  

Dump ship's entire track history